sensor_id;sensor_type;location;lat;lon;timestamp;P1;durP1;ratioP1;P2;durP2;ratioP2
17595;SDS011;8916;47.086;15.920;2023-11-19T00:01:26;13.50;;;6.03;;
17595;SDS011;8916;47.086;15.920;2023-11-19T00:03:55;11.13;;;5.85;;
17595;SDS011;8916;47.086;15.920;2023-11-19T00:06:26;10.95;;;5.22;;
17595;SDS011;8916;47.086;15.920;2023-11-19T00:08:56;11.80;;;5.68;;
17595;SDS011;8916;47.086;15.920;2023-11-19T00:11:25;11.65;;;5.05;;
17595;SDS011;8916;47.086;15.920;2023-11-19T00:13:54;11.13;;;5.82;;
17595;SDS011;8916;47.086;15.920;2023-11-19T00:16:24;13.43;;;5.35;;
17595;SDS011;8916;47.086;15.920;2023-11-19T00:18:54;15.50;;;6.07;;
17595;SDS011;8916;47.086;15.920;2023-11-19T00:21:25;12.45;;;5.25;;
17595;SDS011;8916;47.086;15.920;2023-11-19T00:23:56;9.80;;;4.72;;
17595;SDS011;8916;47.086;15.920;2023-11-19T00:26:25;10.98;;;5.68;;
17595;SDS011;8916;47.086;15.920;2023-11-19T00:28:56;15.10;;;5.50;;
17595;SDS011;8916;47.086;15.920;2023-11-19T00:31:26;14.23;;;5.60;;
17595;SDS011;8916;47.086;15.920;2023-11-19T00:33:57;14.68;;;5.38;;
17595;SDS011;8916;47.086;15.920;2023-11-19T00:36:28;13.43;;;5.97;;
17595;SDS011;8916;47.086;15.920;2023-11-19T00:38:57;15.30;;;5.47;;
17595;SDS011;8916;47.086;15.920;2023-11-19T00:41:27;9.75;;;4.93;;
17595;SDS011;8916;47.086;15.920;2023-11-19T00:43:57;10.15;;;5.20;;
17595;SDS011;8916;47.086;15.920;2023-11-19T00:46:27;13.88;;;5.85;;
17595;SDS011;8916;47.086;15.920;2023-11-19T00:48:56;12.38;;;4.97;;
17595;SDS011;8916;47.086;15.920;2023-11-19T00:51:28;10.48;;;4.35;;
17595;SDS011;8916;47.086;15.920;2023-11-19T00:53:58;12.38;;;5.63;;
17595;SDS011;8916;47.086;15.920;2023-11-19T00:56:28;12.25;;;4.72;;
17595;SDS011;8916;47.086;15.920;2023-11-19T00:58:57;12.15;;;4.75;;
17595;SDS011;8916;47.086;15.920;2023-11-19T01:01:27;9.38;;;4.43;;
17595;SDS011;8916;47.086;15.920;2023-11-19T01:03:57;10.13;;;4.82;;
17595;SDS011;8916;47.086;15.920;2023-11-19T01:06:28;9.40;;;4.25;;
17595;SDS011;8916;47.086;15.920;2023-11-19T01:08:58;9.70;;;4.57;;
17595;SDS011;8916;47.086;15.920;2023-11-19T01:11:28;9.45;;;4.25;;
17595;SDS011;8916;47.086;15.920;2023-11-19T01:13:57;9.75;;;4.03;;
17595;SDS011;8916;47.086;15.920;2023-11-19T01:16:26;14.18;;;5.15;;
17595;SDS011;8916;47.086;15.920;2023-11-19T01:18:56;10.18;;;4.57;;
17595;SDS011;8916;47.086;15.920;2023-11-19T01:21:44;17.05;;;5.18;;
17595;SDS011;8916;47.086;15.920;2023-11-19T01:24:14;11.20;;;5.18;;
17595;SDS011;8916;47.086;15.920;2023-11-19T01:26:44;14.75;;;5.57;;
17595;SDS011;8916;47.086;15.920;2023-11-19T01:29:14;13.20;;;5.30;;
17595;SDS011;8916;47.086;15.920;2023-11-19T01:31:45;11.38;;;4.70;;
17595;SDS011;8916;47.086;15.920;2023-11-19T01:34:15;12.52;;;5.28;;
17595;SDS011;8916;47.086;15.920;2023-11-19T01:36:46;12.57;;;4.65;;
17595;SDS011;8916;47.086;15.920;2023-11-19T01:39:16;10.23;;;5.03;;
17595;SDS011;8916;47.086;15.920;2023-11-19T01:41:47;13.52;;;5.15;;
17595;SDS011;8916;47.086;15.920;2023-11-19T01:44:16;9.65;;;4.82;;
17595;SDS011;8916;47.086;15.920;2023-11-19T01:46:46;12.18;;;5.40;;
17595;SDS011;8916;47.086;15.920;2023-11-19T01:49:16;13.52;;;5.40;;
17595;SDS011;8916;47.086;15.920;2023-11-19T01:51:48;13.30;;;5.13;;
17595;SDS011;8916;47.086;15.920;2023-11-19T01:54:18;10.02;;;4.80;;
17595;SDS011;8916;47.086;15.920;2023-11-19T01:56:48;10.38;;;5.07;;
17595;SDS011;8916;47.086;15.920;2023-11-19T01:59:17;10.82;;;5.78;;
17595;SDS011;8916;47.086;15.920;2023-11-19T02:01:53;10.43;;;5.65;;
17595;SDS011;8916;47.086;15.920;2023-11-19T02:04:27;21.52;;;8.73;;
17595;SDS011;8916;47.086;15.920;2023-11-19T02:06:58;24.75;;;8.75;;
17595;SDS011;8916;47.086;15.920;2023-11-19T02:09:28;10.63;;;5.57;;
17595;SDS011;8916;47.086;15.920;2023-11-19T02:11:57;13.93;;;5.00;;
17595;SDS011;8916;47.086;15.920;2023-11-19T02:14:27;12.85;;;4.97;;
17595;SDS011;8916;47.086;15.920;2023-11-19T02:16:56;13.32;;;5.72;;
17595;SDS011;8916;47.086;15.920;2023-11-19T02:19:25;10.75;;;4.68;;
17595;SDS011;8916;47.086;15.920;2023-11-19T02:21:54;10.82;;;5.10;;
17595;SDS011;8916;47.086;15.920;2023-11-19T02:24:25;9.00;;;4.82;;
17595;SDS011;8916;47.086;15.920;2023-11-19T02:27:02;10.05;;;5.07;;
17595;SDS011;8916;47.086;15.920;2023-11-19T02:29:38;11.13;;;5.10;;
17595;SDS011;8916;47.086;15.920;2023-11-19T02:32:08;15.07;;;5.35;;
17595;SDS011;8916;47.086;15.920;2023-11-19T02:34:37;13.48;;;5.65;;
17595;SDS011;8916;47.086;15.920;2023-11-19T02:37:06;14.20;;;5.03;;
17595;SDS011;8916;47.086;15.920;2023-11-19T02:39:36;9.70;;;5.18;;
17595;SDS011;8916;47.086;15.920;2023-11-19T02:42:05;10.52;;;5.13;;
17595;SDS011;8916;47.086;15.920;2023-11-19T02:44:35;11.55;;;5.53;;
17595;SDS011;8916;47.086;15.920;2023-11-19T02:47:06;12.10;;;5.28;;
17595;SDS011;8916;47.086;15.920;2023-11-19T02:49:36;12.75;;;4.80;;
17595;SDS011;8916;47.086;15.920;2023-11-19T02:52:06;12.63;;;5.43;;
17595;SDS011;8916;47.086;15.920;2023-11-19T02:54:37;11.05;;;5.50;;
17595;SDS011;8916;47.086;15.920;2023-11-19T02:57:07;13.18;;;5.53;;
17595;SDS011;8916;47.086;15.920;2023-11-19T02:59:48;14.70;;;6.03;;
17595;SDS011;8916;47.086;15.920;2023-11-19T03:02:19;13.15;;;5.78;;
17595;SDS011;8916;47.086;15.920;2023-11-19T03:04:49;14.18;;;5.55;;
17595;SDS011;8916;47.086;15.920;2023-11-19T03:07:19;13.38;;;5.05;;
17595;SDS011;8916;47.086;15.920;2023-11-19T03:09:48;13.63;;;5.38;;
17595;SDS011;8916;47.086;15.920;2023-11-19T03:12:17;11.23;;;5.60;;
17595;SDS011;8916;47.086;15.920;2023-11-19T03:14:47;11.60;;;5.68;;
17595;SDS011;8916;47.086;15.920;2023-11-19T03:17:19;11.35;;;5.50;;
17595;SDS011;8916;47.086;15.920;2023-11-19T03:19:49;10.68;;;5.10;;
17595;SDS011;8916;47.086;15.920;2023-11-19T03:22:18;10.45;;;5.03;;
17595;SDS011;8916;47.086;15.920;2023-11-19T03:24:50;13.60;;;5.65;;
17595;SDS011;8916;47.086;15.920;2023-11-19T03:27:19;10.75;;;5.88;;
17595;SDS011;8916;47.086;15.920;2023-11-19T03:29:48;17.35;;;6.03;;
17595;SDS011;8916;47.086;15.920;2023-11-19T03:32:19;14.98;;;5.47;;
17595;SDS011;8916;47.086;15.920;2023-11-19T03:34:48;10.88;;;5.50;;
17595;SDS011;8916;47.086;15.920;2023-11-19T03:37:17;13.10;;;5.90;;
17595;SDS011;8916;47.086;15.920;2023-11-19T03:39:46;18.48;;;6.15;;
17595;SDS011;8916;47.086;15.920;2023-11-19T03:42:16;10.45;;;5.63;;
17595;SDS011;8916;47.086;15.920;2023-11-19T03:44:45;12.88;;;5.88;;
17595;SDS011;8916;47.086;15.920;2023-11-19T03:47:14;12.25;;;5.80;;
17595;SDS011;8916;47.086;15.920;2023-11-19T03:49:48;11.00;;;5.25;;
17595;SDS011;8916;47.086;15.920;2023-11-19T03:52:17;15.82;;;5.70;;
17595;SDS011;8916;47.086;15.920;2023-11-19T03:54:47;14.05;;;6.10;;
17595;SDS011;8916;47.086;15.920;2023-11-19T03:57:16;10.70;;;5.75;;
17595;SDS011;8916;47.086;15.920;2023-11-19T03:59:46;11.27;;;5.72;;
17595;SDS011;8916;47.086;15.920;2023-11-19T04:02:15;16.75;;;6.28;;
17595;SDS011;8916;47.086;15.920;2023-11-19T04:04:45;12.35;;;5.97;;
17595;SDS011;8916;47.086;15.920;2023-11-19T04:07:15;15.32;;;5.72;;
17595;SDS011;8916;47.086;15.920;2023-11-19T04:09:44;11.68;;;5.50;;
17595;SDS011;8916;47.086;15.920;2023-11-19T04:12:14;12.18;;;5.28;;
17595;SDS011;8916;47.086;15.920;2023-11-19T04:14:43;12.40;;;5.47;;
17595;SDS011;8916;47.086;15.920;2023-11-19T04:17:12;11.38;;;5.97;;
17595;SDS011;8916;47.086;15.920;2023-11-19T04:19:41;13.18;;;6.40;;
17595;SDS011;8916;47.086;15.920;2023-11-19T04:22:10;12.30;;;5.65;;
17595;SDS011;8916;47.086;15.920;2023-11-19T04:24:41;11.30;;;5.75;;
17595;SDS011;8916;47.086;15.920;2023-11-19T04:27:11;11.52;;;5.82;;
17595;SDS011;8916;47.086;15.920;2023-11-19T04:29:40;12.70;;;6.20;;
17595;SDS011;8916;47.086;15.920;2023-11-19T04:32:09;12.88;;;5.93;;
17595;SDS011;8916;47.086;15.920;2023-11-19T04:34:38;14.65;;;5.80;;
17595;SDS011;8916;47.086;15.920;2023-11-19T04:37:08;13.13;;;6.40;;
17595;SDS011;8916;47.086;15.920;2023-11-19T04:39:41;14.15;;;5.82;;
17595;SDS011;8916;47.086;15.920;2023-11-19T04:42:13;12.25;;;5.72;;
17595;SDS011;8916;47.086;15.920;2023-11-19T04:44:44;15.57;;;6.40;;
17595;SDS011;8916;47.086;15.920;2023-11-19T04:47:13;12.65;;;5.53;;
17595;SDS011;8916;47.086;15.920;2023-11-19T04:49:43;12.48;;;5.88;;
17595;SDS011;8916;47.086;15.920;2023-11-19T04:52:12;11.82;;;5.40;;
17595;SDS011;8916;47.086;15.920;2023-11-19T04:54:43;11.75;;;5.63;;
17595;SDS011;8916;47.086;15.920;2023-11-19T04:57:12;12.57;;;5.88;;
17595;SDS011;8916;47.086;15.920;2023-11-19T04:59:41;16.75;;;6.50;;
17595;SDS011;8916;47.086;15.920;2023-11-19T05:02:10;11.52;;;5.45;;
17595;SDS011;8916;47.086;15.920;2023-11-19T05:04:42;11.77;;;5.38;;
17595;SDS011;8916;47.086;15.920;2023-11-19T05:07:14;12.10;;;5.72;;
17595;SDS011;8916;47.086;15.920;2023-11-19T05:09:45;12.73;;;5.97;;
17595;SDS011;8916;47.086;15.920;2023-11-19T05:12:14;14.02;;;6.30;;
17595;SDS011;8916;47.086;15.920;2023-11-19T05:14:43;10.82;;;5.70;;
17595;SDS011;8916;47.086;15.920;2023-11-19T05:17:17;12.70;;;5.53;;
17595;SDS011;8916;47.086;15.920;2023-11-19T05:19:46;14.73;;;6.00;;
17595;SDS011;8916;47.086;15.920;2023-11-19T05:22:16;12.85;;;5.78;;
17595;SDS011;8916;47.086;15.920;2023-11-19T05:24:47;11.65;;;5.57;;
17595;SDS011;8916;47.086;15.920;2023-11-19T05:27:17;12.25;;;6.00;;
17595;SDS011;8916;47.086;15.920;2023-11-19T05:29:46;14.93;;;5.90;;
17595;SDS011;8916;47.086;15.920;2023-11-19T05:32:15;11.55;;;5.32;;
17595;SDS011;8916;47.086;15.920;2023-11-19T05:34:44;16.77;;;5.60;;
17595;SDS011;8916;47.086;15.920;2023-11-19T05:37:16;10.23;;;5.25;;
17595;SDS011;8916;47.086;15.920;2023-11-19T05:39:47;14.07;;;5.78;;
17595;SDS011;8916;47.086;15.920;2023-11-19T05:42:16;14.88;;;6.25;;
17595;SDS011;8916;47.086;15.920;2023-11-19T05:44:46;13.10;;;5.93;;
17595;SDS011;8916;47.086;15.920;2023-11-19T05:47:15;13.85;;;6.15;;
17595;SDS011;8916;47.086;15.920;2023-11-19T05:49:44;10.73;;;5.57;;
17595;SDS011;8916;47.086;15.920;2023-11-19T05:52:13;12.88;;;6.13;;
17595;SDS011;8916;47.086;15.920;2023-11-19T05:54:41;13.48;;;6.25;;
17595;SDS011;8916;47.086;15.920;2023-11-19T05:57:12;12.07;;;6.15;;
17595;SDS011;8916;47.086;15.920;2023-11-19T05:59:41;11.73;;;6.20;;
17595;SDS011;8916;47.086;15.920;2023-11-19T06:02:11;12.88;;;6.20;;
17595;SDS011;8916;47.086;15.920;2023-11-19T06:04:40;13.20;;;6.70;;
17595;SDS011;8916;47.086;15.920;2023-11-19T06:07:11;13.50;;;5.90;;
17595;SDS011;8916;47.086;15.920;2023-11-19T06:09:40;13.13;;;6.55;;
17595;SDS011;8916;47.086;15.920;2023-11-19T06:12:09;14.27;;;5.50;;
17595;SDS011;8916;47.086;15.920;2023-11-19T06:14:41;15.80;;;7.57;;
17595;SDS011;8916;47.086;15.920;2023-11-19T06:17:10;9.60;;;5.93;;
17595;SDS011;8916;47.086;15.920;2023-11-19T06:19:40;13.25;;;6.22;;
17595;SDS011;8916;47.086;15.920;2023-11-19T06:22:09;11.38;;;5.70;;
17595;SDS011;8916;47.086;15.920;2023-11-19T06:24:38;12.18;;;6.95;;
17595;SDS011;8916;47.086;15.920;2023-11-19T06:27:08;11.43;;;5.70;;
17595;SDS011;8916;47.086;15.920;2023-11-19T06:29:38;15.90;;;6.90;;
17595;SDS011;8916;47.086;15.920;2023-11-19T06:32:08;12.50;;;6.47;;
17595;SDS011;8916;47.086;15.920;2023-11-19T06:34:41;20.33;;;9.18;;
17595;SDS011;8916;47.086;15.920;2023-11-19T06:37:10;16.77;;;6.90;;
17595;SDS011;8916;47.086;15.920;2023-11-19T06:39:39;17.15;;;6.57;;
17595;SDS011;8916;47.086;15.920;2023-11-19T06:42:09;17.23;;;7.97;;
17595;SDS011;8916;47.086;15.920;2023-11-19T06:44:39;15.52;;;6.55;;
17595;SDS011;8916;47.086;15.920;2023-11-19T06:47:08;13.57;;;6.60;;
17595;SDS011;8916;47.086;15.920;2023-11-19T06:49:38;13.32;;;6.13;;
17595;SDS011;8916;47.086;15.920;2023-11-19T06:52:07;14.65;;;6.45;;
17595;SDS011;8916;47.086;15.920;2023-11-19T06:54:37;14.73;;;6.47;;
17595;SDS011;8916;47.086;15.920;2023-11-19T06:57:07;13.27;;;6.63;;
17595;SDS011;8916;47.086;15.920;2023-11-19T06:59:37;13.43;;;5.68;;
17595;SDS011;8916;47.086;15.920;2023-11-19T07:02:08;14.20;;;6.30;;
17595;SDS011;8916;47.086;15.920;2023-11-19T07:04:37;13.48;;;6.55;;
17595;SDS011;8916;47.086;15.920;2023-11-19T07:07:06;12.48;;;6.47;;
17595;SDS011;8916;47.086;15.920;2023-11-19T07:09:35;13.65;;;6.45;;
17595;SDS011;8916;47.086;15.920;2023-11-19T07:12:05;12.43;;;6.70;;
17595;SDS011;8916;47.086;15.920;2023-11-19T07:14:35;23.10;;;10.45;;
17595;SDS011;8916;47.086;15.920;2023-11-19T07:17:04;16.27;;;7.45;;
17595;SDS011;8916;47.086;15.920;2023-11-19T07:19:34;12.80;;;7.03;;
17595;SDS011;8916;47.086;15.920;2023-11-19T07:22:05;14.40;;;6.75;;
17595;SDS011;8916;47.086;15.920;2023-11-19T07:24:35;12.85;;;6.13;;
17595;SDS011;8916;47.086;15.920;2023-11-19T07:27:04;13.05;;;6.65;;
17595;SDS011;8916;47.086;15.920;2023-11-19T07:29:34;14.38;;;6.28;;
17595;SDS011;8916;47.086;15.920;2023-11-19T07:32:05;15.73;;;7.38;;
17595;SDS011;8916;47.086;15.920;2023-11-19T07:34:37;16.00;;;6.93;;
17595;SDS011;8916;47.086;15.920;2023-11-19T07:37:07;12.75;;;6.40;;
17595;SDS011;8916;47.086;15.920;2023-11-19T07:39:36;14.65;;;6.82;;
17595;SDS011;8916;47.086;15.920;2023-11-19T07:42:08;14.82;;;7.22;;
17595;SDS011;8916;47.086;15.920;2023-11-19T07:44:37;15.30;;;6.97;;
17595;SDS011;8916;47.086;15.920;2023-11-19T07:47:07;16.30;;;7.53;;
17595;SDS011;8916;47.086;15.920;2023-11-19T07:49:37;17.55;;;7.90;;
17595;SDS011;8916;47.086;15.920;2023-11-19T07:52:06;17.02;;;7.70;;
17595;SDS011;8916;47.086;15.920;2023-11-19T07:54:48;21.45;;;9.77;;
17595;SDS011;8916;47.086;15.920;2023-11-19T07:57:17;17.95;;;8.43;;
17595;SDS011;8916;47.086;15.920;2023-11-19T07:59:47;22.42;;;11.05;;
17595;SDS011;8916;47.086;15.920;2023-11-19T08:02:16;31.33;;;13.57;;
17595;SDS011;8916;47.086;15.920;2023-11-19T08:04:47;31.38;;;13.18;;
17595;SDS011;8916;47.086;15.920;2023-11-19T08:07:19;30.63;;;12.70;;
17595;SDS011;8916;47.086;15.920;2023-11-19T08:09:48;29.15;;;11.43;;
17595;SDS011;8916;47.086;15.920;2023-11-19T08:12:17;16.85;;;8.90;;
17595;SDS011;8916;47.086;15.920;2023-11-19T08:14:47;16.70;;;7.97;;
17595;SDS011;8916;47.086;15.920;2023-11-19T08:17:16;16.30;;;7.78;;
17595;SDS011;8916;47.086;15.920;2023-11-19T08:19:47;14.65;;;7.38;;
17595;SDS011;8916;47.086;15.920;2023-11-19T08:22:16;14.45;;;7.18;;
17595;SDS011;8916;47.086;15.920;2023-11-19T08:24:46;11.73;;;5.60;;
17595;SDS011;8916;47.086;15.920;2023-11-19T08:27:15;12.27;;;6.00;;
17595;SDS011;8916;47.086;15.920;2023-11-19T08:29:44;11.88;;;6.40;;
17595;SDS011;8916;47.086;15.920;2023-11-19T08:32:13;14.27;;;6.60;;
17595;SDS011;8916;47.086;15.920;2023-11-19T08:34:42;13.98;;;6.95;;
17595;SDS011;8916;47.086;15.920;2023-11-19T08:37:13;11.95;;;5.70;;
17595;SDS011;8916;47.086;15.920;2023-11-19T08:39:42;15.80;;;7.40;;
17595;SDS011;8916;47.086;15.920;2023-11-19T08:42:12;12.45;;;6.75;;
17595;SDS011;8916;47.086;15.920;2023-11-19T08:44:41;14.05;;;7.13;;
17595;SDS011;8916;47.086;15.920;2023-11-19T08:47:11;16.38;;;7.90;;
17595;SDS011;8916;47.086;15.920;2023-11-19T08:49:41;17.23;;;7.57;;
17595;SDS011;8916;47.086;15.920;2023-11-19T08:52:10;17.45;;;7.50;;
17595;SDS011;8916;47.086;15.920;2023-11-19T08:54:43;15.75;;;6.90;;
17595;SDS011;8916;47.086;15.920;2023-11-19T08:57:12;17.40;;;6.60;;
17595;SDS011;8916;47.086;15.920;2023-11-19T08:59:41;11.95;;;6.55;;
17595;SDS011;8916;47.086;15.920;2023-11-19T09:02:13;12.80;;;6.55;;
17595;SDS011;8916;47.086;15.920;2023-11-19T09:04:42;13.18;;;6.90;;
17595;SDS011;8916;47.086;15.920;2023-11-19T09:07:11;13.10;;;6.80;;
17595;SDS011;8916;47.086;15.920;2023-11-19T09:09:42;12.93;;;6.90;;
17595;SDS011;8916;47.086;15.920;2023-11-19T09:12:12;11.98;;;5.95;;
17595;SDS011;8916;47.086;15.920;2023-11-19T09:14:42;12.88;;;6.65;;
17595;SDS011;8916;47.086;15.920;2023-11-19T09:17:13;15.20;;;6.63;;
17595;SDS011;8916;47.086;15.920;2023-11-19T09:19:43;15.52;;;7.25;;
17595;SDS011;8916;47.086;15.920;2023-11-19T09:22:13;12.05;;;6.22;;
17595;SDS011;8916;47.086;15.920;2023-11-19T09:24:45;13.43;;;6.32;;
17595;SDS011;8916;47.086;15.920;2023-11-19T09:27:15;13.25;;;7.13;;
17595;SDS011;8916;47.086;15.920;2023-11-19T09:29:44;12.73;;;6.82;;
17595;SDS011;8916;47.086;15.920;2023-11-19T09:32:16;11.50;;;6.55;;
17595;SDS011;8916;47.086;15.920;2023-11-19T09:34:46;13.02;;;6.43;;
17595;SDS011;8916;47.086;15.920;2023-11-19T09:37:14;15.18;;;6.50;;
17595;SDS011;8916;47.086;15.920;2023-11-19T09:39:48;11.32;;;6.47;;
17595;SDS011;8916;47.086;15.920;2023-11-19T09:42:17;11.38;;;6.15;;
17595;SDS011;8916;47.086;15.920;2023-11-19T09:44:47;17.00;;;6.57;;
17595;SDS011;8916;47.086;15.920;2023-11-19T09:47:18;14.75;;;6.80;;
17595;SDS011;8916;47.086;15.920;2023-11-19T09:49:49;14.10;;;6.45;;
17595;SDS011;8916;47.086;15.920;2023-11-19T09:52:19;13.48;;;6.35;;
17595;SDS011;8916;47.086;15.920;2023-11-19T09:54:50;13.13;;;6.25;;
17595;SDS011;8916;47.086;15.920;2023-11-19T09:57:19;11.40;;;5.88;;
17595;SDS011;8916;47.086;15.920;2023-11-19T09:59:49;12.63;;;6.18;;
17595;SDS011;8916;47.086;15.920;2023-11-19T10:02:19;12.88;;;7.13;;
17595;SDS011;8916;47.086;15.920;2023-11-19T10:04:49;11.57;;;6.60;;
17595;SDS011;8916;47.086;15.920;2023-11-19T10:07:19;10.50;;;5.85;;
17595;SDS011;8916;47.086;15.920;2023-11-19T10:09:53;11.60;;;6.15;;
17595;SDS011;8916;47.086;15.920;2023-11-19T10:12:22;12.02;;;6.10;;
17595;SDS011;8916;47.086;15.920;2023-11-19T10:14:51;13.20;;;6.28;;
17595;SDS011;8916;47.086;15.920;2023-11-19T10:17:27;12.10;;;6.35;;
17595;SDS011;8916;47.086;15.920;2023-11-19T10:19:57;10.90;;;5.90;;
17595;SDS011;8916;47.086;15.920;2023-11-19T10:22:27;10.95;;;5.90;;
17595;SDS011;8916;47.086;15.920;2023-11-19T10:24:58;10.73;;;5.93;;
17595;SDS011;8916;47.086;15.920;2023-11-19T10:27:28;11.63;;;5.40;;
17595;SDS011;8916;47.086;15.920;2023-11-19T10:29:59;9.07;;;4.75;;
17595;SDS011;8916;47.086;15.920;2023-11-19T10:32:28;11.30;;;5.35;;
17595;SDS011;8916;47.086;15.920;2023-11-19T10:35:07;10.52;;;5.97;;
17595;SDS011;8916;47.086;15.920;2023-11-19T10:37:39;8.20;;;4.75;;
17595;SDS011;8916;47.086;15.920;2023-11-19T10:40:10;11.27;;;5.13;;
17595;SDS011;8916;47.086;15.920;2023-11-19T10:42:41;11.23;;;5.13;;
17595;SDS011;8916;47.086;15.920;2023-11-19T10:45:21;9.75;;;5.35;;
17595;SDS011;8916;47.086;15.920;2023-11-19T10:47:52;11.77;;;5.32;;
17595;SDS011;8916;47.086;15.920;2023-11-19T10:50:22;11.85;;;4.93;;
17595;SDS011;8916;47.086;15.920;2023-11-19T10:52:52;11.23;;;5.63;;
17595;SDS011;8916;47.086;15.920;2023-11-19T10:55:28;12.13;;;6.40;;
17595;SDS011;8916;47.086;15.920;2023-11-19T10:57:58;13.35;;;5.82;;
17595;SDS011;8916;47.086;15.920;2023-11-19T11:00:30;10.98;;;5.32;;
17595;SDS011;8916;47.086;15.920;2023-11-19T11:03:09;8.65;;;4.50;;
17595;SDS011;8916;47.086;15.920;2023-11-19T11:05:43;10.10;;;4.88;;
17595;SDS011;8916;47.086;15.920;2023-11-19T11:08:15;9.50;;;5.07;;
17595;SDS011;8916;47.086;15.920;2023-11-19T11:10:48;9.18;;;5.03;;
17595;SDS011;8916;47.086;15.920;2023-11-19T11:13:24;10.20;;;5.32;;
17595;SDS011;8916;47.086;15.920;2023-11-19T11:15:57;10.07;;;5.40;;
17595;SDS011;8916;47.086;15.920;2023-11-19T11:18:26;10.02;;;5.47;;
17595;SDS011;8916;47.086;15.920;2023-11-19T11:20:57;9.68;;;4.57;;
17595;SDS011;8916;47.086;15.920;2023-11-19T11:27:02;7.72;;;4.75;;
17595;SDS011;8916;47.086;15.920;2023-11-19T11:30:11;10.27;;;4.95;;
17595;SDS011;8916;47.086;15.920;2023-11-19T11:32:54;10.52;;;5.07;;
17595;SDS011;8916;47.086;15.920;2023-11-19T11:35:41;9.63;;;5.07;;
17595;SDS011;8916;47.086;15.920;2023-11-19T11:38:21;10.50;;;4.97;;
17595;SDS011;8916;47.086;15.920;2023-11-19T11:43:55;7.57;;;4.65;;
17595;SDS011;8916;47.086;15.920;2023-11-19T11:49:25;7.43;;;4.88;;
17595;SDS011;8916;47.086;15.920;2023-11-19T11:51:57;10.45;;;5.03;;
17595;SDS011;8916;47.086;15.920;2023-11-19T11:54:28;11.45;;;4.90;;
17595;SDS011;8916;47.086;15.920;2023-11-19T11:57:08;6.43;;;4.72;;
17595;SDS011;8916;47.086;15.920;2023-11-19T11:59:49;7.40;;;4.22;;
17595;SDS011;8916;47.086;15.920;2023-11-19T12:02:18;8.10;;;4.80;;
17595;SDS011;8916;47.086;15.920;2023-11-19T12:04:50;8.73;;;4.82;;
17595;SDS011;8916;47.086;15.920;2023-11-19T12:07:21;10.07;;;5.13;;
17595;SDS011;8916;47.086;15.920;2023-11-19T12:09:53;7.47;;;4.43;;
17595;SDS011;8916;47.086;15.920;2023-11-19T12:12:36;11.77;;;4.60;;
17595;SDS011;8916;47.086;15.920;2023-11-19T12:15:08;7.93;;;4.65;;
17595;SDS011;8916;47.086;15.920;2023-11-19T12:20:26;11.20;;;4.80;;
17595;SDS011;8916;47.086;15.920;2023-11-19T12:23:02;7.25;;;4.28;;
17595;SDS011;8916;47.086;15.920;2023-11-19T12:25:35;8.07;;;5.22;;
17595;SDS011;8916;47.086;15.920;2023-11-19T12:28:04;10.35;;;4.80;;
17595;SDS011;8916;47.086;15.920;2023-11-19T12:30:35;7.95;;;4.30;;
17595;SDS011;8916;47.086;15.920;2023-11-19T12:33:07;8.68;;;4.13;;
17595;SDS011;8916;47.086;15.920;2023-11-19T12:35:38;9.88;;;4.78;;
17595;SDS011;8916;47.086;15.920;2023-11-19T12:38:08;8.02;;;4.60;;
17595;SDS011;8916;47.086;15.920;2023-11-19T12:40:46;8.13;;;4.30;;
17595;SDS011;8916;47.086;15.920;2023-11-19T12:43:21;6.57;;;4.32;;
17595;SDS011;8916;47.086;15.920;2023-11-19T12:45:52;7.05;;;4.45;;
17595;SDS011;8916;47.086;15.920;2023-11-19T12:48:21;7.97;;;4.70;;
17595;SDS011;8916;47.086;15.920;2023-11-19T12:50:50;8.20;;;4.32;;
17595;SDS011;8916;47.086;15.920;2023-11-19T12:53:20;8.50;;;4.75;;
17595;SDS011;8916;47.086;15.920;2023-11-19T12:55:50;8.43;;;4.70;;
17595;SDS011;8916;47.086;15.920;2023-11-19T12:58:29;6.60;;;4.40;;
17595;SDS011;8916;47.086;15.920;2023-11-19T13:01:01;6.78;;;4.75;;
17595;SDS011;8916;47.086;15.920;2023-11-19T13:03:33;8.57;;;4.85;;
17595;SDS011;8916;47.086;15.920;2023-11-19T13:06:03;7.72;;;4.13;;
17595;SDS011;8916;47.086;15.920;2023-11-19T13:08:36;7.72;;;4.38;;
17595;SDS011;8916;47.086;15.920;2023-11-19T13:11:06;5.50;;;3.90;;
17595;SDS011;8916;47.086;15.920;2023-11-19T13:13:55;6.30;;;4.05;;
17595;SDS011;8916;47.086;15.920;2023-11-19T13:16:27;5.45;;;3.90;;
17595;SDS011;8916;47.086;15.920;2023-11-19T13:18:57;6.25;;;3.90;;
17595;SDS011;8916;47.086;15.920;2023-11-19T13:21:27;7.65;;;4.38;;
17595;SDS011;8916;47.086;15.920;2023-11-19T13:23:57;8.18;;;4.25;;
17595;SDS011;8916;47.086;15.920;2023-11-19T13:26:26;4.53;;;3.50;;
17595;SDS011;8916;47.086;15.920;2023-11-19T13:28:55;6.60;;;3.97;;
17595;SDS011;8916;47.086;15.920;2023-11-19T13:31:24;5.90;;;3.92;;
17595;SDS011;8916;47.086;15.920;2023-11-19T13:33:56;8.88;;;4.30;;
17595;SDS011;8916;47.086;15.920;2023-11-19T13:36:25;6.18;;;4.13;;
17595;SDS011;8916;47.086;15.920;2023-11-19T13:38:55;4.85;;;3.85;;
17595;SDS011;8916;47.086;15.920;2023-11-19T13:41:27;5.18;;;3.92;;
17595;SDS011;8916;47.086;15.920;2023-11-19T13:43:56;5.18;;;3.55;;
17595;SDS011;8916;47.086;15.920;2023-11-19T13:46:27;6.10;;;3.85;;
17595;SDS011;8916;47.086;15.920;2023-11-19T13:48:57;6.25;;;3.45;;
17595;SDS011;8916;47.086;15.920;2023-11-19T13:51:26;6.35;;;3.47;;
17595;SDS011;8916;47.086;15.920;2023-11-19T13:53:55;5.28;;;3.90;;
17595;SDS011;8916;47.086;15.920;2023-11-19T13:56:24;6.00;;;3.60;;
17595;SDS011;8916;47.086;15.920;2023-11-19T13:58:53;6.13;;;4.00;;
17595;SDS011;8916;47.086;15.920;2023-11-19T14:01:22;6.05;;;3.70;;
17595;SDS011;8916;47.086;15.920;2023-11-19T14:03:54;5.38;;;3.75;;
17595;SDS011;8916;47.086;15.920;2023-11-19T14:06:23;4.97;;;3.70;;
17595;SDS011;8916;47.086;15.920;2023-11-19T14:08:52;7.88;;;4.15;;
17595;SDS011;8916;47.086;15.920;2023-11-19T14:11:21;5.93;;;3.38;;
17595;SDS011;8916;47.086;15.920;2023-11-19T14:13:50;5.68;;;3.70;;
17595;SDS011;8916;47.086;15.920;2023-11-19T14:16:20;5.80;;;3.65;;
17595;SDS011;8916;47.086;15.920;2023-11-19T14:18:49;7.85;;;4.15;;
17595;SDS011;8916;47.086;15.920;2023-11-19T14:21:19;6.78;;;4.38;;
17595;SDS011;8916;47.086;15.920;2023-11-19T14:23:48;8.43;;;3.85;;
17595;SDS011;8916;47.086;15.920;2023-11-19T14:26:18;5.07;;;3.80;;
17595;SDS011;8916;47.086;15.920;2023-11-19T14:28:47;9.50;;;4.03;;
17595;SDS011;8916;47.086;15.920;2023-11-19T14:31:19;5.47;;;4.10;;
17595;SDS011;8916;47.086;15.920;2023-11-19T14:33:48;6.28;;;4.38;;
17595;SDS011;8916;47.086;15.920;2023-11-19T14:36:17;6.55;;;3.88;;
17595;SDS011;8916;47.086;15.920;2023-11-19T14:38:48;5.40;;;3.72;;
17595;SDS011;8916;47.086;15.920;2023-11-19T14:41:18;5.50;;;3.92;;
17595;SDS011;8916;47.086;15.920;2023-11-19T14:43:47;7.18;;;3.92;;
17595;SDS011;8916;47.086;15.920;2023-11-19T14:46:16;6.65;;;4.20;;
17595;SDS011;8916;47.086;15.920;2023-11-19T14:48:45;5.93;;;3.85;;
17595;SDS011;8916;47.086;15.920;2023-11-19T14:51:14;4.63;;;3.33;;
17595;SDS011;8916;47.086;15.920;2023-11-19T14:53:45;6.70;;;3.75;;
17595;SDS011;8916;47.086;15.920;2023-11-19T14:56:15;10.75;;;4.25;;
17595;SDS011;8916;47.086;15.920;2023-11-19T14:58:44;10.80;;;4.32;;
17595;SDS011;8916;47.086;15.920;2023-11-19T15:01:13;9.88;;;4.47;;
17595;SDS011;8916;47.086;15.920;2023-11-19T15:03:44;7.80;;;4.70;;
17595;SDS011;8916;47.086;15.920;2023-11-19T15:06:16;7.00;;;4.60;;
17595;SDS011;8916;47.086;15.920;2023-11-19T15:08:46;10.68;;;4.63;;
17595;SDS011;8916;47.086;15.920;2023-11-19T15:11:15;11.95;;;5.00;;